sensor_id;sensor_type;location;lat;lon;timestamp;temperature;humidity
66740;DHT22;53653;52.188;8.602;2022-12-07T00:01:29;4.39;96.28
66740;DHT22;53653;52.188;8.602;2022-12-07T00:03:56;4.38;96.41
66740;DHT22;53653;52.188;8.602;2022-12-07T00:06:26;4.36;96.57
66740;DHT22;53653;52.188;8.602;2022-12-07T00:08:51;4.43;96.40
66740;DHT22;53653;52.188;8.602;2022-12-07T00:11:19;4.45;96.38
66740;DHT22;53653;52.188;8.602;2022-12-07T00:13:46;4.41;96.51
66740;DHT22;53653;52.188;8.602;2022-12-07T00:16:17;4.45;96.49
66740;DHT22;53653;52.188;8.602;2022-12-07T00:18:43;4.50;96.44
66740;DHT22;53653;52.188;8.602;2022-12-07T00:21:18;4.52;96.40
66740;DHT22;53653;52.188;8.602;2022-12-07T00:23:44;4.46;96.55
66740;DHT22;53653;52.188;8.602;2022-12-07T00:26:13;4.49;96.63
66740;DHT22;53653;52.188;8.602;2022-12-07T00:28:39;4.54;96.46
66740;DHT22;53653;52.188;8.602;2022-12-07T00:31:06;4.53;96.51
66740;DHT22;53653;52.188;8.602;2022-12-07T00:33:33;4.53;96.48
66740;DHT22;53653;52.188;8.602;2022-12-07T00:35:59;4.50;96.62
66740;DHT22;53653;52.188;8.602;2022-12-07T00:38:24;4.49;96.69
66740;DHT22;53653;52.188;8.602;2022-12-07T00:41:03;4.50;96.84
66740;DHT22;53653;52.188;8.602;2022-12-07T00:43:29;4.57;96.87
66740;DHT22;53653;52.188;8.602;2022-12-07T00:45:55;4.60;96.90
66740;DHT22;53653;52.188;8.602;2022-12-07T00:48:21;4.59;96.94
66740;DHT22;53653;52.188;8.602;2022-12-07T00:50:46;4.62;96.94
66740;DHT22;53653;52.188;8.602;2022-12-07T00:53:12;4.67;96.92
66740;DHT22;53653;52.188;8.602;2022-12-07T00:55:38;4.73;96.93
66740;DHT22;53653;52.188;8.602;2022-12-07T00:58:03;4.77;96.64
66740;DHT22;53653;52.188;8.602;2022-12-07T01:00:30;4.74;96.61
66740;DHT22;53653;52.188;8.602;2022-12-07T01:02:55;4.73;96.73
66740;DHT22;53653;52.188;8.602;2022-12-07T01:05:20;4.77;96.72
66740;DHT22;53653;52.188;8.602;2022-12-07T01:07:46;4.77;96.62
66740;DHT22;53653;52.188;8.602;2022-12-07T01:10:12;4.69;96.70
66740;DHT22;53653;52.188;8.602;2022-12-07T01:12:38;4.70;96.74
66740;DHT22;53653;52.188;8.602;2022-12-07T01:15:05;4.79;96.64
66740;DHT22;53653;52.188;8.602;2022-12-07T01:17:30;4.83;96.23
66740;DHT22;53653;52.188;8.602;2022-12-07T01:19:55;4.83;96.00
66740;DHT22;53653;52.188;8.602;2022-12-07T01:22:21;4.84;95.89
66740;DHT22;53653;52.188;8.602;2022-12-07T01:24:46;4.81;95.72
66740;DHT22;53653;52.188;8.602;2022-12-07T01:27:13;4.83;95.73
66740;DHT22;53653;52.188;8.602;2022-12-07T01:29:38;4.83;95.65
66740;DHT22;53653;52.188;8.602;2022-12-07T01:32:04;4.85;95.46
66740;DHT22;53653;52.188;8.602;2022-12-07T01:34:30;4.81;95.32
66740;DHT22;53653;52.188;8.602;2022-12-07T01:36:55;4.80;95.26
66740;DHT22;53653;52.188;8.602;2022-12-07T01:39:20;4.76;95.41
66740;DHT22;53653;52.188;8.602;2022-12-07T01:41:46;4.76;95.33
66740;DHT22;53653;52.188;8.602;2022-12-07T01:46:40;4.67;95.20
66740;DHT22;53653;52.188;8.602;2022-12-07T01:49:53;4.62;95.23
66740;DHT22;53653;52.188;8.602;2022-12-07T01:52:20;4.64;95.12
66740;DHT22;53653;52.188;8.602;2022-12-07T01:54:44;4.50;95.30
66740;DHT22;53653;52.188;8.602;2022-12-07T01:57:11;4.59;95.24
66740;DHT22;53653;52.188;8.602;2022-12-07T01:59:37;4.60;95.24
66740;DHT22;53653;52.188;8.602;2022-12-07T02:02:08;4.54;95.22
66740;DHT22;53653;52.188;8.602;2022-12-07T02:04:35;4.48;95.30
66740;DHT22;53653;52.188;8.602;2022-12-07T02:07:02;4.50;95.38
66740;DHT22;53653;52.188;8.602;2022-12-07T02:09:28;4.49;95.33
66740;DHT22;53653;52.188;8.602;2022-12-07T02:11:54;4.50;95.30
66740;DHT22;53653;52.188;8.602;2022-12-07T02:14:20;4.60;95.16
66740;DHT22;53653;52.188;8.602;2022-12-07T02:20:00;4.57;94.99
66740;DHT22;53653;52.188;8.602;2022-12-07T02:22:47;4.54;94.97
66740;DHT22;53653;52.188;8.602;2022-12-07T02:25:35;4.56;95.03
66740;DHT22;53653;52.188;8.602;2022-12-07T02:28:23;4.59;94.85
66740;DHT22;53653;52.188;8.602;2022-12-07T02:30:55;4.59;94.70
66740;DHT22;53653;52.188;8.602;2022-12-07T02:33:43;4.56;94.74
66740;DHT22;53653;52.188;8.602;2022-12-07T02:36:17;4.56;94.83
66740;DHT22;53653;52.188;8.602;2022-12-07T02:38:51;4.57;94.78
66740;DHT22;53653;52.188;8.602;2022-12-07T02:41:52;4.52;94.92
66740;DHT22;53653;52.188;8.602;2022-12-07T02:44:23;4.50;94.95
66740;DHT22;53653;52.188;8.602;2022-12-07T02:46:59;4.52;94.83
66740;DHT22;53653;52.188;8.602;2022-12-07T02:49:27;4.52;94.79
66740;DHT22;53653;52.188;8.602;2022-12-07T02:51:53;4.56;94.58
66740;DHT22;53653;52.188;8.602;2022-12-07T02:54:20;4.49;94.60
66740;DHT22;53653;52.188;8.602;2022-12-07T02:56:50;4.46;94.63
66740;DHT22;53653;52.188;8.602;2022-12-07T03:13:06;4.24;94.83
66740;DHT22;53653;52.188;8.602;2022-12-07T03:18:02;4.15;94.79
66740;DHT22;53653;52.188;8.602;2022-12-07T03:20:29;4.15;94.80
66740;DHT22;53653;52.188;8.602;2022-12-07T03:22:54;4.06;94.97
66740;DHT22;53653;52.188;8.602;2022-12-07T03:25:20;4.05;94.91
66740;DHT22;53653;52.188;8.602;2022-12-07T03:27:59;4.04;94.85
66740;DHT22;53653;52.188;8.602;2022-12-07T03:30:34;4.01;94.81
66740;DHT22;53653;52.188;8.602;2022-12-07T03:33:07;3.97;94.84
66740;DHT22;53653;52.188;8.602;2022-12-07T03:35:59;3.95;94.86
66740;DHT22;53653;52.188;8.602;2022-12-07T03:38:45;3.83;95.01
66740;DHT22;53653;52.188;8.602;2022-12-07T03:41:18;3.84;95.13
66740;DHT22;53653;52.188;8.602;2022-12-07T03:43:47;3.81;95.15
66740;DHT22;53653;52.188;8.602;2022-12-07T03:49:37;3.81;94.98
66740;DHT22;53653;52.188;8.602;2022-12-07T03:52:12;3.73;95.04
66740;DHT22;53653;52.188;8.602;2022-12-07T03:55:02;3.71;95.12
66740;DHT22;53653;52.188;8.602;2022-12-07T03:57:30;3.80;95.08
66740;DHT22;53653;52.188;8.602;2022-12-07T03:59:58;3.78;94.88
66740;DHT22;53653;52.188;8.602;2022-12-07T04:02:27;3.74;94.86
66740;DHT22;53653;52.188;8.602;2022-12-07T04:04:55;3.71;94.95
66740;DHT22;53653;52.188;8.602;2022-12-07T04:07:20;3.77;94.83
66740;DHT22;53653;52.188;8.602;2022-12-07T04:09:46;3.84;94.64
66740;DHT22;53653;52.188;8.602;2022-12-07T04:12:11;3.77;94.63
66740;DHT22;53653;52.188;8.602;2022-12-07T04:14:36;3.76;94.78
66740;DHT22;53653;52.188;8.602;2022-12-07T04:17:02;3.76;94.77
66740;DHT22;53653;52.188;8.602;2022-12-07T04:19:30;3.77;94.69
66740;DHT22;53653;52.188;8.602;2022-12-07T04:21:57;3.76;94.55
66740;DHT22;53653;52.188;8.602;2022-12-07T04:24:23;3.76;94.53
66740;DHT22;53653;52.188;8.602;2022-12-07T04:26:49;3.76;94.43
66740;DHT22;53653;52.188;8.602;2022-12-07T04:29:15;3.69;94.48
66740;DHT22;53653;52.188;8.602;2022-12-07T04:31:41;3.66;94.55
66740;DHT22;53653;52.188;8.602;2022-12-07T04:34:07;3.67;94.49
66740;DHT22;53653;52.188;8.602;2022-12-07T04:36:33;3.60;94.56
66740;DHT22;53653;52.188;8.602;2022-12-07T04:38:58;3.64;94.49
66740;DHT22;53653;52.188;8.602;2022-12-07T04:41:24;3.66;94.45
66740;DHT22;53653;52.188;8.602;2022-12-07T04:44:00;3.67;94.26
66740;DHT22;53653;52.188;8.602;2022-12-07T04:46:27;3.69;94.22
66740;DHT22;53653;52.188;8.602;2022-12-07T04:48:53;3.70;94.14
66740;DHT22;53653;52.188;8.602;2022-12-07T04:51:25;3.76;93.85
66740;DHT22;53653;52.188;8.602;2022-12-07T04:53:51;3.74;94.00
66740;DHT22;53653;52.188;8.602;2022-12-07T04:56:17;3.70;94.02
66740;DHT22;53653;52.188;8.602;2022-12-07T04:58:44;3.67;94.09
66740;DHT22;53653;52.188;8.602;2022-12-07T05:01:09;3.71;94.02
66740;DHT22;53653;52.188;8.602;2022-12-07T05:03:36;3.71;93.95
66740;DHT22;53653;52.188;8.602;2022-12-07T05:06:02;3.81;93.69
66740;DHT22;53653;52.188;8.602;2022-12-07T05:08:27;3.78;93.64
66740;DHT22;53653;52.188;8.602;2022-12-07T05:10:52;3.84;93.53
66740;DHT22;53653;52.188;8.602;2022-12-07T05:13:18;3.83;93.57
66740;DHT22;53653;52.188;8.602;2022-12-07T05:15:43;3.80;93.58
66740;DHT22;53653;52.188;8.602;2022-12-07T05:18:10;3.77;93.66
66740;DHT22;53653;52.188;8.602;2022-12-07T05:20:38;3.70;94.09
66740;DHT22;53653;52.188;8.602;2022-12-07T05:23:03;3.71;94.15
66740;DHT22;53653;52.188;8.602;2022-12-07T05:25:29;3.76;93.85
66740;DHT22;53653;52.188;8.602;2022-12-07T05:27:55;3.80;93.78
66740;DHT22;53653;52.188;8.602;2022-12-07T05:30:22;3.78;93.74
66740;DHT22;53653;52.188;8.602;2022-12-07T05:32:47;3.78;93.66
66740;DHT22;53653;52.188;8.602;2022-12-07T05:35:13;3.74;93.78
66740;DHT22;53653;52.188;8.602;2022-12-07T05:37:38;3.77;93.65
66740;DHT22;53653;52.188;8.602;2022-12-07T05:40:05;3.76;93.62
66740;DHT22;53653;52.188;8.602;2022-12-07T05:42:30;3.70;93.72
66740;DHT22;53653;52.188;8.602;2022-12-07T05:44:55;3.66;93.80
66740;DHT22;53653;52.188;8.602;2022-12-07T05:47:21;3.69;93.72
66740;DHT22;53653;52.188;8.602;2022-12-07T05:49:46;3.70;93.57
66740;DHT22;53653;52.188;8.602;2022-12-07T05:52:11;3.64;93.52
66740;DHT22;53653;52.188;8.602;2022-12-07T05:54:37;3.57;93.73
66740;DHT22;53653;52.188;8.602;2022-12-07T05:57:02;3.53;93.95
66740;DHT22;53653;52.188;8.602;2022-12-07T05:59:28;3.47;94.09
66740;DHT22;53653;52.188;8.602;2022-12-07T06:02:06;3.42;94.17
66740;DHT22;53653;52.188;8.602;2022-12-07T06:04:35;3.39;94.18
66740;DHT22;53653;52.188;8.602;2022-12-07T06:07:01;3.36;94.16
66740;DHT22;53653;52.188;8.602;2022-12-07T06:09:27;3.37;94.21
66740;DHT22;53653;52.188;8.602;2022-12-07T06:11:54;3.27;94.28
66740;DHT22;53653;52.188;8.602;2022-12-07T06:14:38;3.25;94.41
66740;DHT22;53653;52.188;8.602;2022-12-07T06:17:04;3.27;94.23
66740;DHT22;53653;52.188;8.602;2022-12-07T06:19:30;3.22;94.28
66740;DHT22;53653;52.188;8.602;2022-12-07T06:21:56;3.13;94.58
66740;DHT22;53653;52.188;8.602;2022-12-07T06:24:22;3.08;94.83
66740;DHT22;53653;52.188;8.602;2022-12-07T06:26:48;3.11;94.87
66740;DHT22;53653;52.188;8.602;2022-12-07T06:29:14;3.09;94.81
66740;DHT22;53653;52.188;8.602;2022-12-07T06:31:40;3.06;94.74
66740;DHT22;53653;52.188;8.602;2022-12-07T06:34:14;3.09;94.79
66740;DHT22;53653;52.188;8.602;2022-12-07T06:36:40;3.02;94.83
66740;DHT22;53653;52.188;8.602;2022-12-07T06:39:05;3.02;94.92
66740;DHT22;53653;52.188;8.602;2022-12-07T06:41:31;2.97;95.02
66740;DHT22;53653;52.188;8.602;2022-12-07T06:43:56;2.91;95.04
66740;DHT22;53653;52.188;8.602;2022-12-07T06:46:22;2.87;95.09
66740;DHT22;53653;52.188;8.602;2022-12-07T06:48:47;2.87;95.08
66740;DHT22;53653;52.188;8.602;2022-12-07T06:51:13;2.83;95.06
66740;DHT22;53653;52.188;8.602;2022-12-07T06:53:38;2.80;95.10
66740;DHT22;53653;52.188;8.602;2022-12-07T06:56:04;2.74;95.17
66740;DHT22;53653;52.188;8.602;2022-12-07T06:58:30;2.73;95.32
66740;DHT22;53653;52.188;8.602;2022-12-07T07:00:55;2.71;95.38
66740;DHT22;53653;52.188;8.602;2022-12-07T07:03:20;2.74;95.39
66740;DHT22;53653;52.188;8.602;2022-12-07T07:05:46;2.80;95.37
66740;DHT22;53653;52.188;8.602;2022-12-07T07:08:12;2.84;95.06
66740;DHT22;53653;52.188;8.602;2022-12-07T07:10:38;2.80;94.99
66740;DHT22;53653;52.188;8.602;2022-12-07T07:13:04;2.83;94.85
66740;DHT22;53653;52.188;8.602;2022-12-07T07:15:31;2.74;94.93
66740;DHT22;53653;52.188;8.602;2022-12-07T07:17:57;2.73;95.08
66740;DHT22;53653;52.188;8.602;2022-12-07T07:20:22;2.71;95.15
66740;DHT22;53653;52.188;8.602;2022-12-07T07:22:48;2.65;95.37
66740;DHT22;53653;52.188;8.602;2022-12-07T07:25:14;2.62;95.53
66740;DHT22;53653;52.188;8.602;2022-12-07T07:27:40;2.61;95.62
66740;DHT22;53653;52.188;8.602;2022-12-07T07:30:06;2.70;95.57
66740;DHT22;53653;52.188;8.602;2022-12-07T07:32:32;2.77;95.43
66740;DHT22;53653;52.188;8.602;2022-12-07T07:34:57;2.77;95.36
66740;DHT22;53653;52.188;8.602;2022-12-07T07:37:23;2.76;95.32
66740;DHT22;53653;52.188;8.602;2022-12-07T07:39:49;2.80;95.36
66740;DHT22;53653;52.188;8.602;2022-12-07T07:42:15;2.80;95.22
66740;DHT22;53653;52.188;8.602;2022-12-07T07:44:40;2.81;95.28
66740;DHT22;53653;52.188;8.602;2022-12-07T07:47:06;2.83;95.33
66740;DHT22;53653;52.188;8.602;2022-12-07T07:49:31;2.87;95.26
66740;DHT22;53653;52.188;8.602;2022-12-07T07:51:57;2.91;95.17
66740;DHT22;53653;52.188;8.602;2022-12-07T07:54:22;2.91;95.05
66740;DHT22;53653;52.188;8.602;2022-12-07T07:56:48;2.88;95.04
66740;DHT22;53653;52.188;8.602;2022-12-07T07:59:14;2.88;95.03
66740;DHT22;53653;52.188;8.602;2022-12-07T08:01:40;2.83;95.05
66740;DHT22;53653;52.188;8.602;2022-12-07T08:04:05;2.88;95.03
66740;DHT22;53653;52.188;8.602;2022-12-07T08:06:31;2.91;95.09
66740;DHT22;53653;52.188;8.602;2022-12-07T08:08:56;2.88;95.13
66740;DHT22;53653;52.188;8.602;2022-12-07T08:11:23;2.95;95.13
66740;DHT22;53653;52.188;8.602;2022-12-07T08:13:49;3.02;95.15
66740;DHT22;53653;52.188;8.602;2022-12-07T08:16:15;3.08;94.92
66740;DHT22;53653;52.188;8.602;2022-12-07T08:18:41;3.12;94.77
66740;DHT22;53653;52.188;8.602;2022-12-07T08:21:10;3.15;94.58
66740;DHT22;53653;52.188;8.602;2022-12-07T08:23:36;3.23;94.47
66740;DHT22;53653;52.188;8.602;2022-12-07T08:26:03;3.26;94.33
66740;DHT22;53653;52.188;8.602;2022-12-07T08:28:29;3.29;94.14
66740;DHT22;53653;52.188;8.602;2022-12-07T08:31:11;3.32;94.10
66740;DHT22;53653;52.188;8.602;2022-12-07T08:33:37;3.46;93.88
66740;DHT22;53653;52.188;8.602;2022-12-07T08:36:08;3.47;93.75
66740;DHT22;53653;52.188;8.602;2022-12-07T08:38:35;3.49;93.83
66740;DHT22;53653;52.188;8.602;2022-12-07T08:41:00;3.52;93.84
66740;DHT22;53653;52.188;8.602;2022-12-07T08:43:26;3.59;93.50
66740;DHT22;53653;52.188;8.602;2022-12-07T08:48:32;3.70;93.35
66740;DHT22;53653;52.188;8.602;2022-12-07T08:50:58;3.73;93.42
66740;DHT22;53653;52.188;8.602;2022-12-07T08:53:23;3.74;93.51
66740;DHT22;53653;52.188;8.602;2022-12-07T08:55:49;3.80;93.37
66740;DHT22;53653;52.188;8.602;2022-12-07T08:58:15;3.88;93.21
66740;DHT22;53653;52.188;8.602;2022-12-07T09:00:40;3.88;93.15
66740;DHT22;53653;52.188;8.602;2022-12-07T09:03:06;3.95;92.88
66740;DHT22;53653;52.188;8.602;2022-12-07T09:05:33;3.95;92.67
66740;DHT22;53653;52.188;8.602;2022-12-07T09:08:00;3.91;92.95
66740;DHT22;53653;52.188;8.602;2022-12-07T09:10:27;3.93;93.23
66740;DHT22;53653;52.188;8.602;2022-12-07T09:12:52;4.02;92.75
66740;DHT22;53653;52.188;8.602;2022-12-07T09:15:18;4.04;92.62
66740;DHT22;53653;52.188;8.602;2022-12-07T09:17:43;4.06;92.51
66740;DHT22;53653;52.188;8.602;2022-12-07T09:20:09;4.09;92.42
66740;DHT22;53653;52.188;8.602;2022-12-07T09:22:34;4.14;92.17
66740;DHT22;53653;52.188;8.602;2022-12-07T09:25:00;4.22;91.89
66740;DHT22;53653;52.188;8.602;2022-12-07T09:27:26;4.31;91.45
66740;DHT22;53653;52.188;8.602;2022-12-07T09:29:52;4.41;90.87
66740;DHT22;53653;52.188;8.602;2022-12-07T09:32:17;4.41;90.58
66740;DHT22;53653;52.188;8.602;2022-12-07T09:34:43;4.52;90.35
66740;DHT22;53653;52.188;8.602;2022-12-07T09:37:08;4.54;90.34
66740;DHT22;53653;52.188;8.602;2022-12-07T09:39:34;4.63;89.76
66740;DHT22;53653;52.188;8.602;2022-12-07T09:42:03;4.79;89.40
66740;DHT22;53653;52.188;8.602;2022-12-07T09:44:29;4.91;89.04
66740;DHT22;53653;52.188;8.602;2022-12-07T09:46:55;4.90;88.67
66740;DHT22;53653;52.188;8.602;2022-12-07T09:49:23;4.87;88.66
66740;DHT22;53653;52.188;8.602;2022-12-07T09:54:36;4.76;88.53
66740;DHT22;53653;52.188;8.602;2022-12-07T09:57:05;4.73;88.87
66740;DHT22;53653;52.188;8.602;2022-12-07T09:59:31;4.74;88.77
66740;DHT22;53653;52.188;8.602;2022-12-07T10:02:36;4.81;88.94
66740;DHT22;53653;52.188;8.602;2022-12-07T10:05:05;4.93;88.72
66740;DHT22;53653;52.188;8.602;2022-12-07T10:07:31;5.03;88.31
66740;DHT22;53653;52.188;8.602;2022-12-07T10:09:57;5.05;88.29
66740;DHT22;53653;52.188;8.602;2022-12-07T10:12:22;5.15;88.26
66740;DHT22;53653;52.188;8.602;2022-12-07T10:14:59;5.30;88.22
66740;DHT22;53653;52.188;8.602;2022-12-07T10:20:17;5.45;87.52
66740;DHT22;53653;52.188;8.602;2022-12-07T10:23:00;5.41;87.73
66740;DHT22;53653;52.188;8.602;2022-12-07T10:25:29;5.36;87.82
66740;DHT22;53653;52.188;8.602;2022-12-07T10:28:02;5.28;87.69
66740;DHT22;53653;52.188;8.602;2022-12-07T10:30:50;5.17;88.37
66740;DHT22;53653;52.188;8.602;2022-12-07T10:35:59;5.17;88.60
66740;DHT22;53653;52.188;8.602;2022-12-07T10:38:26;5.11;88.71
66740;DHT22;53653;52.188;8.602;2022-12-07T10:41:12;5.12;88.30
66740;DHT22;53653;52.188;8.602;2022-12-07T10:43:47;5.10;88.42
66740;DHT22;53653;52.188;8.602;2022-12-07T10:51:42;5.03;88.39
66740;DHT22;53653;52.188;8.602;2022-12-07T10:57:47;5.08;88.29
66740;DHT22;53653;52.188;8.602;2022-12-07T11:00:22;5.17;87.58
66740;DHT22;53653;52.188;8.602;2022-12-07T11:08:16;5.30;86.81
66740;DHT22;53653;52.188;8.602;2022-12-07T11:10:57;5.36;86.52
66740;DHT22;53653;52.188;8.602;2022-12-07T11:16:16;5.52;85.76
66740;DHT22;53653;52.188;8.602;2022-12-07T11:21:39;5.49;86.36
66740;DHT22;53653;52.188;8.602;2022-12-07T11:24:58;5.52;86.20
66740;DHT22;53653;52.188;8.602;2022-12-07T11:27:20;5.48;86.19
66740;DHT22;53653;52.188;8.602;2022-12-07T11:30:02;5.46;85.77
66740;DHT22;53653;52.188;8.602;2022-12-07T11:35:40;5.45;85.76
66740;DHT22;53653;52.188;8.602;2022-12-07T11:38:26;5.39;85.66
66740;DHT22;53653;52.188;8.602;2022-12-07T11:41:02;5.42;85.61
66740;DHT22;53653;52.188;8.602;2022-12-07T11:43:49;5.41;85.14
66740;DHT22;53653;52.188;8.602;2022-12-07T11:46:16;5.53;85.14
66740;DHT22;53653;52.188;8.602;2022-12-07T11:48:46;6.14;83.56
66740;DHT22;53653;52.188;8.602;2022-12-07T11:51:16;6.61;81.46
66740;DHT22;53653;52.188;8.602;2022-12-07T11:53:53;6.52;81.75
66740;DHT22;53653;52.188;8.602;2022-12-07T11:56:23;6.24;81.70
66740;DHT22;53653;52.188;8.602;2022-12-07T11:59:08;6.06;82.49
66740;DHT22;53653;52.188;8.602;2022-12-07T12:06:35;6.09;83.28
66740;DHT22;53653;52.188;8.602;2022-12-07T12:09:14;6.04;82.92
66740;DHT22;53653;52.188;8.602;2022-12-07T12:15:09;5.89;82.74
66740;DHT22;53653;52.188;8.602;2022-12-07T12:17:54;5.83;83.58
66740;DHT22;53653;52.188;8.602;2022-12-07T12:20:37;5.76;83.87
66740;DHT22;53653;52.188;8.602;2022-12-07T12:25:52;5.67;84.11
66740;DHT22;53653;52.188;8.602;2022-12-07T12:31:04;5.55;84.99
66740;DHT22;53653;52.188;8.602;2022-12-07T12:33:31;5.51;84.95
66740;DHT22;53653;52.188;8.602;2022-12-07T12:44:00;5.59;85.96
66740;DHT22;53653;52.188;8.602;2022-12-07T12:49:13;5.80;85.94
66740;DHT22;53653;52.188;8.602;2022-12-07T12:51:41;5.93;85.44
66740;DHT22;53653;52.188;8.602;2022-12-07T12:54:34;6.01;84.82
66740;DHT22;53653;52.188;8.602;2022-12-07T12:59:42;5.87;85.14
66740;DHT22;53653;52.188;8.602;2022-12-07T13:02:28;5.90;85.20
66740;DHT22;53653;52.188;8.602;2022-12-07T13:05:00;5.90;85.36
66740;DHT22;53653;52.188;8.602;2022-12-07T13:15:43;6.30;82.02
66740;DHT22;53653;52.188;8.602;2022-12-07T13:31:38;6.69;80.07
66740;DHT22;53653;52.188;8.602;2022-12-07T13:34:27;6.62;80.92
66740;DHT22;53653;52.188;8.602;2022-12-07T13:36:51;6.39;80.75
66740;DHT22;53653;52.188;8.602;2022-12-07T13:39:19;6.30;81.66
66740;DHT22;53653;52.188;8.602;2022-12-07T13:41:49;6.16;81.96
66740;DHT22;53653;52.188;8.602;2022-12-07T13:44:17;6.10;81.86
66740;DHT22;53653;52.188;8.602;2022-12-07T13:49:28;5.99;81.09
66740;DHT22;53653;52.188;8.602;2022-12-07T13:51:54;5.89;81.20
66740;DHT22;53653;52.188;8.602;2022-12-07T13:54:21;5.89;81.46
66740;DHT22;53653;52.188;8.602;2022-12-07T13:56:51;5.81;82.27
66740;DHT22;53653;52.188;8.602;2022-12-07T13:59:20;5.86;81.70
66740;DHT22;53653;52.188;8.602;2022-12-07T14:01:47;5.85;81.83
66740;DHT22;53653;52.188;8.602;2022-12-07T14:06:50;5.83;81.80
66740;DHT22;53653;52.188;8.602;2022-12-07T14:09:22;5.83;82.10
66740;DHT22;53653;52.188;8.602;2022-12-07T14:11:50;5.74;82.57
66740;DHT22;53653;52.188;8.602;2022-12-07T14:14:33;5.73;82.38
66740;DHT22;53653;52.188;8.602;2022-12-07T14:17:11;5.76;82.72
66740;DHT22;53653;52.188;8.602;2022-12-07T14:19:44;5.77;82.72
66740;DHT22;53653;52.188;8.602;2022-12-07T14:25:19;5.76;83.28
66740;DHT22;53653;52.188;8.602;2022-12-07T14:30:18;5.76;83.67
66740;DHT22;53653;52.188;8.602;2022-12-07T14:32:44;5.72;83.73
66740;DHT22;53653;52.188;8.602;2022-12-07T14:35:15;5.70;83.89
66740;DHT22;53653;52.188;8.602;2022-12-07T14:37:43;5.69;83.88
66740;DHT22;53653;52.188;8.602;2022-12-07T14:40:33;5.62;83.96
66740;DHT22;53653;52.188;8.602;2022-12-07T14:43:11;5.60;84.01
66740;DHT22;53653;52.188;8.602;2022-12-07T14:45:37;5.53;83.86
66740;DHT22;53653;52.188;8.602;2022-12-07T14:48:05;5.45;83.82
66740;DHT22;53653;52.188;8.602;2022-12-07T14:50:35;5.36;84.14
66740;DHT22;53653;52.188;8.602;2022-12-07T14:53:09;5.38;84.09
66740;DHT22;53653;52.188;8.602;2022-12-07T14:55:36;5.31;84.26
66740;DHT22;53653;52.188;8.602;2022-12-07T14:58:01;5.27;84.48
66740;DHT22;53653;52.188;8.602;2022-12-07T15:00:27;5.24;84.51
66740;DHT22;53653;52.188;8.602;2022-12-07T15:02:53;5.18;84.77
66740;DHT22;53653;52.188;8.602;2022-12-07T15:05:19;5.12;85.15
66740;DHT22;53653;52.188;8.602;2022-12-07T15:07:45;5.17;85.10
66740;DHT22;53653;52.188;8.602;2022-12-07T15:10:32;5.10;85.41
66740;DHT22;53653;52.188;8.602;2022-12-07T15:13:02;5.11;85.30
66740;DHT22;53653;52.188;8.602;2022-12-07T15:15:48;5.07;85.46
66740;DHT22;53653;52.188;8.602;2022-12-07T15:18:14;5.07;85.47
66740;DHT22;53653;52.188;8.602;2022-12-07T15:20:40;5.03;85.90
66740;DHT22;53653;52.188;8.602;2022-12-07T15:23:05;5.03;85.99
66740;DHT22;53653;52.188;8.602;2022-12-07T15:25:31;5.03;86.11
66740;DHT22;53653;52.188;8.602;2022-12-07T15:27:56;5.08;85.99
66740;DHT22;53653;52.188;8.602;2022-12-07T15:30:22;4.97;85.88
66740;DHT22;53653;52.188;8.602;2022-12-07T15:32:51;4.87;86.63
66740;DHT22;53653;52.188;8.602;2022-12-07T15:35:16;4.79;87.09
66740;DHT22;53653;52.188;8.602;2022-12-07T15:37:42;4.63;87.18
66740;DHT22;53653;52.188;8.602;2022-12-07T15:40:08;4.53;87.28
66740;DHT22;53653;52.188;8.602;2022-12-07T15:42:35;4.52;87.89
66740;DHT22;53653;52.188;8.602;2022-12-07T15:45:01;4.46;88.22
66740;DHT22;53653;52.188;8.602;2022-12-07T15:47:35;4.46;88.52
66740;DHT22;53653;52.188;8.602;2022-12-07T15:50:03;4.41;88.77
66740;DHT22;53653;52.188;8.602;2022-12-07T15:52:30;4.39;89.11
66740;DHT22;53653;52.188;8.602;2022-12-07T15:54:55;4.38;89.21
66740;DHT22;53653;52.188;8.602;2022-12-07T15:57:20;4.38;89.18
66740;DHT22;53653;52.188;8.602;2022-12-07T15:59:46;4.31;88.02
66740;DHT22;53653;52.188;8.602;2022-12-07T16:02:12;4.24;88.03
66740;DHT22;53653;52.188;8.602;2022-12-07T16:04:38;4.15;88.11
66740;DHT22;53653;52.188;8.602;2022-12-07T16:07:03;4.11;88.15
66740;DHT22;53653;52.188;8.602;2022-12-07T16:09:29;4.02;87.96
66740;DHT22;53653;52.188;8.602;2022-12-07T16:11:55;3.95;87.84
66740;DHT22;53653;52.188;8.602;2022-12-07T16:14:21;3.91;87.74
66740;DHT22;53653;52.188;8.602;2022-12-07T16:16:47;3.83;87.68
66740;DHT22;53653;52.188;8.602;2022-12-07T16:19:12;3.80;87.62
66740;DHT22;53653;52.188;8.602;2022-12-07T16:21:38;3.76;87.77
66740;DHT22;53653;52.188;8.602;2022-12-07T16:24:04;3.63;88.21
66740;DHT22;53653;52.188;8.602;2022-12-07T16:26:30;3.57;88.41
66740;DHT22;53653;52.188;8.602;2022-12-07T16:28:56;3.49;88.69
66740;DHT22;53653;52.188;8.602;2022-12-07T16:31:24;3.47;88.86
66740;DHT22;53653;52.188;8.602;2022-12-07T16:33:50;3.52;88.46
66740;DHT22;53653;52.188;8.602;2022-12-07T16:36:18;3.43;88.74
66740;DHT22;53653;52.188;8.602;2022-12-07T16:38:44;3.43;88.71
66740;DHT22;53653;52.188;8.602;2022-12-07T16:41:10;3.37;89.01
66740;DHT22;53653;52.188;8.602;2022-12-07T16:43:36;3.30;89.33
66740;DHT22;53653;52.188;8.602;2022-12-07T16:46:03;3.25;89.58
66740;DHT22;53653;52.188;8.602;2022-12-07T16:48:28;3.26;89.66
66740;DHT22;53653;52.188;8.602;2022-12-07T16:50:54;3.19;89.93
66740;DHT22;53653;52.188;8.602;2022-12-07T16:53:21;3.19;90.04
66740;DHT22;53653;52.188;8.602;2022-12-07T16:55:46;3.23;89.77
66740;DHT22;53653;52.188;8.602;2022-12-07T16:58:13;3.22;89.62
66740;DHT22;53653;52.188;8.602;2022-12-07T17:00:40;3.22;89.80
66740;DHT22;53653;52.188;8.602;2022-12-07T17:03:06;3.18;90.09
66740;DHT22;53653;52.188;8.602;2022-12-07T17:05:32;3.16;90.25
66740;DHT22;53653;52.188;8.602;2022-12-07T17:07:58;3.15;90.42
66740;DHT22;53653;52.188;8.602;2022-12-07T17:10:24;3.12;90.70
66740;DHT22;53653;52.188;8.602;2022-12-07T17:12:50;3.12;90.99
66740;DHT22;53653;52.188;8.602;2022-12-07T17:15:16;3.15;91.13
66740;DHT22;53653;52.188;8.602;2022-12-07T17:17:46;3.16;91.25
66740;DHT22;53653;52.188;8.602;2022-12-07T17:20:13;3.15;91.32
66740;DHT22;53653;52.188;8.602;2022-12-07T17:22:39;3.22;91.40
66740;DHT22;53653;52.188;8.602;2022-12-07T17:25:05;3.16;91.62
66740;DHT22;53653;52.188;8.602;2022-12-07T17:27:31;3.15;91.70
66740;DHT22;53653;52.188;8.602;2022-12-07T17:29:57;3.25;91.66
66740;DHT22;53653;52.188;8.602;2022-12-07T17:32:22;3.30;91.56
66740;DHT22;53653;52.188;8.602;2022-12-07T17:34:47;3.35;91.63
66740;DHT22;53653;52.188;8.602;2022-12-07T17:37:13;3.37;91.59
66740;DHT22;53653;52.188;8.602;2022-12-07T17:39:38;3.40;91.65
66740;DHT22;53653;52.188;8.602;2022-12-07T17:42:04;3.46;91.75
66740;DHT22;53653;52.188;8.602;2022-12-07T17:44:48;3.46;91.84
66740;DHT22;53653;52.188;8.602;2022-12-07T17:47:13;3.49;91.98
66740;DHT22;53653;52.188;8.602;2022-12-07T17:49:41;3.46;92.04
66740;DHT22;53653;52.188;8.602;2022-12-07T17:52:06;3.49;92.14
66740;DHT22;53653;52.188;8.602;2022-12-07T17:54:50;3.47;92.38